»·PEaware :: QXE2120 KSAN-KSJC

QXE2120 :: KSAN-KSJC

FLIGHT INFORMATION

Flight Status: Arrived
Operator:
Horizon Air
More flights by this operator :: More flights under this callsign
Pilot: Charles H. (29886)
Aircraft: EMBRAER EMB-170/175
(E170)
More flights by this aircraft type
Origin: KSAN San Diego Intl-Lindbergh
United States
Destination: KSJC Mineta San Jose Intl
United States
More flights between these airports :: More routes between these airports
Route: PADRZ2 IKAYE RZS ROBIE5
File this flight plan on PilotEdge
Remarks: Unable SILCN4 arrival at SJC, FMS database error
Altitude:
(Current/Filed)
30,000ft
Speed:
(Current/Filed)
450kts
Departed: 09-Jun-20 01:38 PM
Arrived: 09-Jun-20 02:39 PM
Distance/Time
Traveled:
363nm/1:01
Distance/Time
To Go:
Arrived

Flight Plot

Page will automatically refresh every two minutes.

Flight plan parsing failed; only flown route is shown


Map Options




Map Legend


Flown Route
Filed Route
Departure Airport
Arrival Airport
Navaid (VOR, NDB)
Fix

Horizontal Profiles

Position Reports

Time Latitude Longitude Heading Altitude Ground
Speed
09-Jun-20 13:11 32.733187 -117.196849 134 16ft 0kts
09-Jun-20 13:12 32.733187 -117.196849 134 16ft 0kts
09-Jun-20 13:13 32.733187 -117.196849 134 16ft 0kts
09-Jun-20 13:14 32.733187 -117.196849 134 16ft 0kts
09-Jun-20 13:15 32.733187 -117.196849 134 16ft 0kts
09-Jun-20 13:16 32.733187 -117.196849 134 16ft 0kts
09-Jun-20 13:17 32.733187 -117.196849 134 16ft 0kts
09-Jun-20 13:18 32.733187 -117.196849 134 16ft 0kts
09-Jun-20 13:19 32.733187 -117.196849 134 16ft 0kts
09-Jun-20 13:20 32.733187 -117.196849 134 16ft 0kts
09-Jun-20 13:21 32.733187 -117.196849 134 16ft 0kts
09-Jun-20 13:22 32.733187 -117.196849 134 16ft 0kts
09-Jun-20 13:24 32.733187 -117.196849 134 16ft 0kts
09-Jun-20 13:25 32.733187 -117.196849 134 16ft 0kts
09-Jun-20 13:26 32.733187 -117.196849 134 16ft 0kts
09-Jun-20 13:27 32.733187 -117.196849 134 16ft 0kts
09-Jun-20 13:28 32.733517 -117.197243 134 16ft 0kts
09-Jun-20 13:29 32.733517 -117.197243 134 16ft 0kts
09-Jun-20 13:30 32.733508 -117.197185 71 16ft 1kts
09-Jun-20 13:31 32.733864 -117.195192 106 19ft 11kts
09-Jun-20 13:32 32.732730 -117.190551 106 18ft 16kts
09-Jun-20 13:33 32.731322 -117.184709 106 16ft 18kts
09-Jun-20 13:34 32.729899 -117.178843 105 18ft 16kts
09-Jun-20 13:35 32.729491 -117.176786 73 21ft 0kts
09-Jun-20 13:36 32.729491 -117.176786 73 21ft 0kts
09-Jun-20 13:37 32.730196 -117.175842 284 22ft 0kts
09-Jun-20 13:38 32.735726 -117.199369 286 216ft 152kts
09-Jun-20 13:38 32.752774 -117.237257 310 1716ft 156kts
09-Jun-20 13:40 32.789983 -117.300304 306 2518ft 238kts
09-Jun-20 13:41 32.833611 -117.370660 309 4006ft 278kts
09-Jun-20 13:41 32.873159 -117.432490 310 5863ft 287kts
09-Jun-20 13:43 32.930335 -117.521381 309 8567ft 295kts
09-Jun-20 13:43 32.972068 -117.586456 309 10524ft 301kts
09-Jun-20 13:44 33.026713 -117.671902 307 12194ft 334kts
09-Jun-20 13:46 33.099512 -117.768860 318 15153ft 337kts
09-Jun-20 13:46 33.155813 -117.823801 319 17076ft 345kts
09-Jun-20 13:47 33.228421 -117.901500 313 19614ft 357kts
09-Jun-20 13:48 33.299175 -117.986587 313 21969ft 368kts
09-Jun-20 13:49 33.372698 -118.075063 313 23103ft 376kts
09-Jun-20 13:50 33.446985 -118.164215 313 23547ft 384kts
09-Jun-20 13:51 33.521381 -118.253686 313 25413ft 389kts
09-Jun-20 13:52 33.598212 -118.346344 313 26804ft 399kts
09-Jun-20 13:53 33.676720 -118.441290 312 28026ft 408kts
09-Jun-20 13:54 33.757254 -118.538897 312 29088ft 416kts
09-Jun-20 13:55 33.839310 -118.638655 312 30022ft 423kts
09-Jun-20 13:56 33.925942 -118.745397 312 30098ft 461kts
09-Jun-20 13:57 34.014676 -118.854207 312 30104ft 454kts
09-Jun-20 13:58 34.102885 -118.961907 312 30107ft 454kts
09-Jun-20 13:59 34.182010 -119.079516 298 30105ft 450kts
09-Jun-20 14:00 34.242549 -119.211536 296 30105ft 450kts
09-Jun-20 14:01 34.304304 -119.343100 298 30108ft 450kts
09-Jun-20 14:02 34.367503 -119.473881 298 30107ft 451kts
09-Jun-20 14:03 34.430403 -119.604822 298 30107ft 451kts
09-Jun-20 14:04 34.493212 -119.736842 298 30109ft 451kts
09-Jun-20 14:05 34.584301 -119.842184 324 30114ft 459kts
09-Jun-20 14:06 34.692410 -119.924844 325 30116ft 460kts
09-Jun-20 14:07 34.798963 -120.010492 323 30119ft 459kts
09-Jun-20 14:08 34.902773 -120.097105 323 30120ft 459kts
09-Jun-20 14:09 35.007592 -120.184727 323 30120ft 457kts
09-Jun-20 14:10 35.110659 -120.270925 323 30118ft 456kts
09-Jun-20 14:11 35.215610 -120.357897 323 30112ft 456kts
09-Jun-20 14:12 35.320223 -120.445496 323 30108ft 456kts
09-Jun-20 14:13 35.424465 -120.533591 323 30121ft 455kts
09-Jun-20 14:14 35.528733 -120.622006 323 30150ft 455kts
09-Jun-20 14:15 35.632527 -120.710867 322 30157ft 455kts
09-Jun-20 14:16 35.736054 -120.800056 322 30157ft 455kts
09-Jun-20 14:17 35.839650 -120.888569 322 30156ft 454kts
09-Jun-20 14:18 35.943519 -120.977394 322 30156ft 454kts
09-Jun-20 14:19 36.046667 -121.066202 321 30141ft 449kts
09-Jun-20 14:20 36.144763 -121.150866 322 27423ft 409kts
09-Jun-20 14:21 36.236907 -121.229788 322 25044ft 395kts
09-Jun-20 14:22 36.324643 -121.306015 322 22875ft 382kts
09-Jun-20 14:23 36.410126 -121.380651 322 20958ft 364kts
09-Jun-20 14:24 36.492929 -121.453079 323 20178ft 367kts
09-Jun-20 14:25 36.576176 -121.525940 322 20151ft 366kts
09-Jun-20 14:26 36.659847 -121.591931 342 17385ft 351kts
09-Jun-20 14:27 36.756597 -121.596330 3 14800ft 346kts
09-Jun-20 14:28 36.850416 -121.586152 4 12375ft 332kts
09-Jun-20 14:29 36.937240 -121.584807 335 10771ft 285kts
09-Jun-20 14:30 37.007298 -121.631328 332 7962ft 282kts
09-Jun-20 14:31 37.075141 -121.676914 332 5729ft 270kts
09-Jun-20 14:32 37.141688 -121.721479 332 4737ft 270kts
09-Jun-20 14:33 37.207607 -121.765270 332 3722ft 256kts
09-Jun-20 14:34 37.257368 -121.816775 319 2751ft 214kts
09-Jun-20 14:35 37.300342 -121.862253 320 2008ft 181kts
09-Jun-20 14:36 37.335122 -121.899858 320 643ft 144kts
09-Jun-20 14:37 37.361543 -121.928617 318 52ft 76kts
09-Jun-20 14:38 37.365784 -121.930634 46 47ft 8kts
09-Jun-20 14:39 37.367671 -121.929483 322 43ft 0kts
09-Jun-20 14:40 37.368272 -121.929041 49 42ft 0kts
09-Jun-20 14:41 37.368272 -121.929042 49 42ft 0kts

Navigation Log

Ident Type
Flight plan parsing failed, navigation log unavailable